Time;durP1;ratioP1;P1;durP2;ratioP2;P2;SDS_P1;SDS_P2;PMS_P1;PMS_P2;Temp;Humidity;BMP_temperature;BMP_pressure;BME280_temperature;BME280_humidity;BME280_pressure;Samples;Min_cycle;Max_cycle;Signal;HPM_P1;HPM_P2
2021/12/27 00:00:38;;;;;;;25.95;15.43;;;;;;;6.86;66.59;94805.09;5011573;28;20089;-61
2021/12/27 00:03:04;;;;;;;20.27;12.82;;;;;;;6.65;66.90;94807.84;5011918;28;20129;-60
2021/12/27 00:05:30;;;;;;;25.00;14.65;;;;;;;6.60;66.99;94771.38;5011943;28;20033;-61
2021/12/27 00:07:55;;;;;;;24.35;16.00;;;;;;;6.69;66.74;94776.03;5011957;28;20025;-61
2021/12/27 00:10:23;;;;;;;24.50;14.23;;;;;;;6.81;65.99;94754.06;5010227;28;20202;-61
2021/12/27 00:12:50;;;;;;;24.83;15.63;;;;;;;6.94;66.14;94785.84;5009769;28;20048;-62
2021/12/27 00:15:16;;;;;;;20.27;14.02;;;;;;;6.98;65.96;94781.38;5011588;28;20033;-61
2021/12/27 00:17:43;;;;;;;22.23;15.32;;;;;;;6.91;66.07;94782.59;5011377;28;20026;-61
2021/12/27 00:20:11;;;;;;;20.98;13.82;;;;;;;6.97;66.35;94785.69;5010945;28;20037;-66
2021/12/27 00:22:36;;;;;;;18.58;13.38;;;;;;;6.92;65.90;94762.03;5011257;28;20041;-63
2021/12/27 00:25:04;;;;;;;21.70;14.95;;;;;;;6.98;66.51;94765.97;5010753;28;20026;-61
2021/12/27 00:27:29;;;;;;;21.15;14.50;;;;;;;6.87;66.76;94766.56;5011104;28;20101;-64
2021/12/27 00:29:55;;;;;;;21.52;14.88;;;;;;;6.75;67.09;94756.94;5011192;28;20525;-61
2021/12/27 00:32:20;;;;;;;23.98;15.23;;;;;;;6.71;66.93;94773.41;5011192;28;20038;-61
2021/12/27 00:34:46;;;;;;;26.73;15.85;;;;;;;6.84;67.37;94776.13;5010911;28;20026;-62
2021/12/27 00:37:11;;;;;;;25.15;16.40;;;;;;;6.84;67.07;94771.84;5010832;28;20028;-62
2021/12/27 00:39:37;;;;;;;18.75;14.00;;;;;;;6.71;66.49;94720.41;5010905;28;20037;-61
2021/12/27 00:42:04;;;;;;;22.00;14.88;;;;;;;7.12;66.39;94767.84;5010710;28;20018;-61
2021/12/27 00:44:30;;;;;;;21.65;14.95;;;;;;;7.16;65.91;94782.13;5010591;28;20119;-62
2021/12/27 00:46:56;;;;;;;24.65;14.63;;;;;;;6.89;66.83;94775.00;5011072;28;20117;-63
2021/12/27 00:49:21;;;;;;;24.40;16.20;;;;;;;6.74;67.08;94775.78;5010343;28;20030;-62
2021/12/27 00:51:47;;;;;;;22.35;15.68;;;;;;;6.92;66.71;94785.09;5010810;28;20029;-61
2021/12/27 00:54:14;;;;;;;21.45;14.13;;;;;;;6.87;66.72;94787.06;5011048;28;20087;-61
2021/12/27 00:56:39;;;;;;;24.30;14.77;;;;;;;6.85;67.33;94794.00;5010459;28;20057;-62
2021/12/27 00:59:04;;;;;;;22.98;15.23;;;;;;;6.97;66.85;94798.50;5010543;28;20137;-62
2021/12/27 01:01:30;;;;;;;22.70;16.55;;;;;;;7.04;66.12;94780.22;5010045;28;20033;-64
2021/12/27 01:03:56;;;;;;;28.67;16.33;;;;;;;7.10;65.93;94783.28;5042383;28;20088;-61
2021/12/27 01:06:21;;;;;;;28.23;17.63;;;;;;;7.16;66.74;94782.13;5025584;28;20026;-64
2021/12/27 01:08:47;;;;;;;24.95;15.85;;;;;;;7.21;65.59;94798.09;5011034;28;20037;-63
2021/12/27 01:13:46;;;;;;;25.52;15.43;;;;;;;6.43;66.35;94688.53;5010506;28;20026;-61
2021/12/27 01:16:14;;;;;;;24.83;16.02;;;;;;;7.05;66.86;94772.47;5010356;28;20113;-58
2021/12/27 01:18:46;;;;;;;26.35;17.48;;;;;;;7.06;66.64;94753.59;5010181;28;20034;-64
2021/12/27 01:21:14;;;;;;;27.58;17.88;;;;;;;7.15;66.59;94754.84;5010301;28;20034;-61
2021/12/27 01:23:40;;;;;;;16.05;11.10;;;;;;;6.99;67.03;94800.97;5009727;28;20022;-63
2021/12/27 01:26:06;;;;;;;20.92;15.60;;;;;;;6.97;66.53;94754.09;5010316;28;20022;-62
2021/12/27 01:28:32;;;;;;;23.52;16.20;;;;;;;7.14;66.34;94751.44;5010099;28;20032;-60
2021/12/27 01:30:58;;;;;;;15.95;11.93;;;;;;;7.20;65.85;94777.66;5042190;28;20176;-60
2021/12/27 01:33:25;;;;;;;23.23;15.50;;;;;;;7.08;66.69;94762.00;5009951;28;20594;-60
2021/12/27 01:35:51;;;;;;;27.30;15.45;;;;;;;7.10;66.33;94775.59;5009496;28;20474;-60
2021/12/27 01:38:17;;;;;;;26.38;16.92;;;;;;;7.12;67.14;94760.13;5010008;28;20504;-60
2021/12/27 01:40:45;;;;;;;25.45;17.15;;;;;;;7.15;66.44;94758.22;5009848;28;20025;-60
2021/12/27 01:43:26;;;;;;;25.67;17.00;;;;;;;7.17;66.30;94748.72;5010107;28;20088;-60
2021/12/27 01:46:16;;;;;;;27.03;17.63;;;;;;;7.20;66.13;94754.56;5009888;28;20112;-63
2021/12/27 01:48:45;;;;;;;27.58;16.65;;;;;;;7.31;65.91;94765.94;4986963;28;20831;-59
2021/12/27 01:51:15;;;;;;;27.80;17.90;;;;;;;7.20;66.33;94750.28;4987698;28;20117;-61
2021/12/27 01:53:42;;;;;;;28.63;18.10;;;;;;;7.16;67.09;94749.59;4987469;28;20453;-61
2021/12/27 01:56:10;;;;;;;27.02;18.55;;;;;;;7.08;67.09;94744.06;4987700;28;20469;-61
2021/12/27 01:58:37;;;;;;;26.77;17.77;;;;;;;6.97;66.87;94736.97;4987375;28;20045;-61
2021/12/27 02:01:07;;;;;;;30.40;17.15;;;;;;;7.17;66.51;94738.44;4986758;28;20140;-61
2021/12/27 02:03:34;;;;;;;26.02;18.38;;;;;;;7.25;66.14;94737.22;4987414;28;20064;-61
2021/12/27 02:06:00;;;;;;;23.80;15.60;;;;;;;7.50;65.45;94765.75;4987566;28;20054;-61
2021/12/27 02:08:26;;;;;;;24.90;16.90;;;;;;;7.29;66.12;94767.72;4987163;28;20045;-60
2021/12/27 02:10:52;;;;;;;24.35;16.77;;;;;;;7.03;66.67;94715.28;4987322;28;20027;-61
2021/12/27 02:13:19;;;;;;;28.90;18.23;;;;;;;7.14;67.31;94735.22;4986902;28;20406;-61
2021/12/27 02:15:45;;;;;;;27.85;19.25;;;;;;;7.28;66.92;94732.75;4987176;28;20110;-59
2021/12/27 02:18:10;;;;;;;26.73;17.80;;;;;;;7.18;66.53;94693.97;4987276;28;20205;-59
2021/12/27 02:20:38;;;;;;;27.48;17.70;;;;;;;7.34;66.93;94734.97;4986746;28;20121;-59
2021/12/27 02:23:11;;;;;;;26.50;18.13;;;;;;;7.25;67.84;94730.34;4987063;28;20043;-59
2021/12/27 02:25:36;;;;;;;24.55;17.75;;;;;;;7.44;67.09;94731.91;4996948;28;20053;-58
2021/12/27 02:28:05;;;;;;;27.58;18.17;;;;;;;7.49;67.19;94727.34;5009092;28;20041;-61
2021/12/27 02:30:32;;;;;;;25.38;17.70;;;;;;;7.44;67.55;94719.06;5009062;28;20040;-61
2021/12/27 02:33:03;;;;;;;28.05;18.85;;;;;;;7.46;67.34;94718.09;5009261;28;20033;-60
2021/12/27 02:35:40;;;;;;;26.27;17.95;;;;;;;7.53;67.42;94729.66;5008619;28;20501;-60
2021/12/27 02:38:25;;;;;;;28.10;17.70;;;;;;;7.34;67.29;94727.25;5009031;28;20034;-60
2021/12/27 02:40:51;;;;;;;30.55;18.45;;;;;;;7.22;68.33;94709.19;5007683;28;20038;-64
2021/12/27 02:43:21;;;;;;;28.27;19.35;;;;;;;7.10;68.68;94719.19;5008976;28;20042;-62
2021/12/27 02:45:54;;;;;;;27.20;20.15;;;;;;;7.10;68.50;94726.88;5008890;28;20030;-62
2021/12/27 02:48:22;;;;;;;25.23;19.15;;;;;;;7.10;69.10;94711.50;5008375;28;20059;-63
2021/12/27 02:50:49;;;;;;;30.60;20.08;;;;;;;7.01;68.63;94696.59;5008632;28;20030;-60
2021/12/27 02:53:16;;;;;;;25.40;18.08;;;;;;;7.11;68.68;94707.19;5008703;28;20120;-59
2021/12/27 02:55:41;;;;;;;25.40;17.58;;;;;;;7.14;68.21;94715.53;5008779;28;20025;-59
2021/12/27 02:58:07;;;;;;;26.33;18.23;;;;;;;7.21;67.68;94700.63;5008362;28;20057;-61
2021/12/27 03:00:40;;;;;;;26.17;18.00;;;;;;;7.29;68.45;94692.53;5008190;28;20026;-61
2021/12/27 03:03:06;;;;;;;26.65;17.75;;;;;;;7.28;67.91;94694.28;5008477;28;20033;-62
2021/12/27 03:05:32;;;;;;;24.55;17.45;;;;;;;7.57;67.27;94704.66;5008264;28;20452;-60
2021/12/27 03:07:59;;;;;;;29.52;18.20;;;;;;;7.27;67.42;94673.84;5008281;28;20034;-59
2021/12/27 03:10:31;;;;;;;22.80;15.55;;;;;;;7.21;67.33;94695.50;5008217;28;20033;-61
2021/12/27 03:12:58;;;;;;;27.00;19.48;;;;;;;7.14;68.04;94691.63;5038571;28;20421;-61
2021/12/27 03:15:23;;;;;;;28.08;18.60;;;;;;;7.15;68.01;94713.81;5008658;28;20464;-59
2021/12/27 03:17:51;;;;;;;27.25;17.83;;;;;;;6.94;68.72;94685.84;5008144;28;20042;-59
2021/12/27 03:20:19;;;;;;;27.45;18.45;;;;;;;7.07;68.68;94706.53;5008188;28;20417;-61
2021/12/27 03:22:45;;;;;;;29.25;19.25;;;;;;;7.17;68.41;94712.81;5008253;28;20049;-59
2021/12/27 03:25:15;;;;;;;30.33;20.70;;;;;;;7.07;69.13;94695.47;5008117;28;20029;-61
2021/12/27 03:27:41;;;;;;;32.65;20.23;;;;;;;7.20;68.97;94705.84;5008381;28;20505;-62
2021/12/27 03:30:14;;;;;;;25.58;18.58;;;;;;;7.09;68.93;94673.94;5007043;28;20022;-60
2021/12/27 03:32:40;;;;;;;25.60;17.13;;;;;;;7.21;68.61;94697.25;5008068;28;20030;-59
2021/12/27 03:35:11;;;;;;;28.45;17.88;;;;;;;7.06;68.85;94697.19;5008456;28;20091;-61
2021/12/27 03:37:39;;;;;;;31.50;17.92;;;;;;;6.83;69.93;94684.78;5007814;28;20447;-60
2021/12/27 03:40:07;;;;;;;28.08;18.83;;;;;;;6.88;69.65;94690.50;5008446;28;20406;-59
2021/12/27 03:42:33;;;;;;;28.45;20.38;;;;;;;6.71;70.01;94694.78;5008323;28;20033;-60
2021/12/27 03:44:58;;;;;;;26.23;18.73;;;;;;;6.70;70.14;94692.28;5008076;28;20030;-61
2021/12/27 03:47:24;;;;;;;27.55;19.25;;;;;;;6.65;69.65;94679.72;5007797;28;20033;-60
2021/12/27 03:49:49;;;;;;;24.98;16.75;;;;;;;6.60;69.88;94663.78;5008213;28;20044;-60
2021/12/27 03:52:15;;;;;;;26.38;19.58;;;;;;;6.81;69.96;94679.75;5008432;28;20040;-60
2021/12/27 03:54:40;;;;;;;27.02;19.17;;;;;;;6.87;69.41;94671.72;5008317;28;20022;-63
2021/12/27 03:57:06;;;;;;;26.85;16.65;;;;;;;6.62;69.41;94623.50;5008066;28;20424;-60
2021/12/27 04:01:59;;;;;;;26.17;18.25;;;;;;;7.15;68.63;94668.47;5008089;28;20026;-59
2021/12/27 04:04:26;;;;;;;26.40;15.95;;;;;;;6.90;68.78;94642.53;5008099;28;20026;-62
2021/12/27 04:06:52;;;;;;;23.02;15.50;;;;;;;7.13;68.75;94680.56;5008223;28;20456;-64
2021/12/27 04:09:19;;;;;;;16.10;11.27;;;;;;;7.17;67.85;94671.78;5008107;28;20041;-62
2021/12/27 04:11:45;;;;;;;18.73;12.75;;;;;;;7.12;68.46;94678.91;5007841;28;20045;-58
2021/12/27 04:14:10;;;;;;;16.35;10.70;;;;;;;7.16;67.85;94685.50;5008094;28;20033;-60
2021/12/27 04:16:36;;;;;;;13.45;9.55;;;;;;;7.18;67.69;94693.97;5006516;28;20478;-60
2021/12/27 04:19:01;;;;;;;17.73;10.98;;;;;;;7.20;67.80;94691.31;5010493;28;20548;-61
2021/12/27 04:21:27;;;;;;;15.90;10.55;;;;;;;7.36;66.93;94691.28;5011439;28;20424;-60
2021/12/27 04:23:52;;;;;;;17.35;10.18;;;;;;;7.33;67.09;94689.72;5011114;28;20029;-60
2021/12/27 04:26:19;;;;;;;15.10;10.20;;;;;;;7.52;66.31;94698.94;5011444;28;20088;-61
2021/12/27 04:28:45;;;;;;;23.02;14.02;;;;;;;7.36;67.14;94704.09;5010894;28;20089;-59
2021/12/27 04:31:11;;;;;;;20.52;14.30;;;;;;;7.12;67.41;94655.81;5011093;28;20136;-62
2021/12/27 04:33:37;;;;;;;21.10;15.43;;;;;;;7.10;68.36;94691.00;5011366;28;20022;-59
2021/12/27 04:36:02;;;;;;;21.40;15.43;;;;;;;7.10;68.50;94691.00;5009511;28;20395;-59
2021/12/27 04:38:28;;;;;;;21.42;15.82;;;;;;;6.97;68.87;94693.38;5011407;28;20632;-59
2021/12/27 04:40:53;;;;;;;17.17;11.93;;;;;;;7.09;68.53;94707.28;5011042;28;20476;-63
2021/12/27 04:43:22;;;;;;;16.45;11.93;;;;;;;6.92;68.19;94667.19;5011240;28;20022;-59
2021/12/27 04:45:49;;;;;;;17.38;12.90;;;;;;;6.88;68.55;94655.41;5010879;28;20060;-62
2021/12/27 04:48:16;;;;;;;19.60;13.68;;;;;;;7.11;68.48;94705.44;5010526;28;20540;-63
2021/12/27 04:50:41;;;;;;;23.73;13.32;;;;;;;7.22;67.98;94709.19;5010650;28;20026;-63
2021/12/27 04:53:07;;;;;;;19.30;13.27;;;;;;;7.13;68.25;94701.09;5011110;28;20030;-60
2021/12/27 04:55:36;;;;;;;18.65;14.38;;;;;;;6.91;69.13;94696.28;5011003;28;20068;-62
2021/12/27 04:58:10;;;;;;;15.95;11.90;;;;;;;7.17;68.28;94707.69;5011064;28;20080;-61
2021/12/27 05:00:37;;;;;;;17.27;10.70;;;;;;;7.24;67.58;94700.47;5010297;28;20486;-61
2021/12/27 05:03:02;;;;;;;14.13;10.48;;;;;;;7.03;68.50;94683.69;5010978;28;20084;-61
2021/12/27 05:05:30;;;;;;;13.65;9.80;;;;;;;7.16;67.85;94700.88;5010887;28;20053;-62
2021/12/27 05:07:57;;;;;;;15.82;10.55;;;;;;;7.23;67.70;94688.59;5010957;28;20038;-62
2021/12/27 05:10:23;;;;;;;16.42;10.68;;;;;;;7.31;67.00;94670.19;5042396;28;20018;-61
2021/12/27 05:12:49;;;;;;;14.95;10.63;;;;;;;7.47;67.23;94694.06;5010270;28;20130;-61
2021/12/27 05:15:14;;;;;;;16.58;10.55;;;;;;;7.48;67.28;94679.53;5010438;28;20036;-59
2021/12/27 05:17:40;;;;;;;12.68;9.57;;;;;;;7.41;66.73;94684.16;5010738;28;20030;-59
2021/12/27 05:20:08;;;;;;;16.30;10.98;;;;;;;7.34;67.35;94678.53;5010301;28;20072;-60
2021/12/27 05:22:34;;;;;;;11.73;8.88;;;;;;;7.49;67.26;94692.25;5010271;28;20033;-60
2021/12/27 05:25:00;;;;;;;13.10;8.00;;;;;;;7.58;66.72;94713.19;5010022;28;20459;-61
2021/12/27 05:27:26;;;;;;;11.80;8.30;;;;;;;7.38;66.70;94668.09;5009873;28;20030;-62
2021/12/27 05:29:51;;;;;;;12.70;8.07;;;;;;;7.31;66.97;94665.06;5009985;28;20036;-61
2021/12/27 05:32:17;;;;;;;15.20;9.27;;;;;;;7.15;66.74;94657.41;5010079;28;20086;-61
2021/12/27 05:34:42;;;;;;;11.18;8.23;;;;;;;7.37;67.26;94690.38;5010356;28;20110;-62
2021/12/27 05:37:08;;;;;;;11.65;8.40;;;;;;;7.29;67.54;94687.41;5009908;28;20053;-61
2021/12/27 05:39:34;;;;;;;11.90;8.63;;;;;;;7.51;67.09;94702.41;5010116;28;20552;-61
2021/12/27 05:42:00;;;;;;;11.90;8.40;;;;;;;7.39;67.43;94665.44;5009981;28;20069;-61
2021/12/27 05:44:25;;;;;;;13.98;9.75;;;;;;;7.48;66.42;94674.38;5009952;28;20053;-61
2021/12/27 05:46:51;;;;;;;13.13;8.70;;;;;;;7.66;66.62;94700.75;5009819;28;20058;-62
2021/12/27 05:49:16;;;;;;;13.25;9.15;;;;;;;7.49;66.69;94665.75;5009489;28;20790;-60
2021/12/27 05:51:43;;;;;;;14.35;8.32;;;;;;;7.47;67.21;94694.06;5009918;28;20026;-61
2021/12/27 05:54:10;;;;;;;15.05;9.68;;;;;;;7.54;66.90;94695.41;5009819;28;20026;-61
2021/12/27 05:56:36;;;;;;;12.73;8.77;;;;;;;7.72;66.88;94685.81;5008501;28;20032;-60
2021/12/27 05:59:03;;;;;;;11.35;7.47;;;;;;;7.54;66.45;94680.00;5009621;28;20449;-61
2021/12/27 06:01:28;;;;;;;14.40;9.05;;;;;;;7.54;66.62;94692.81;5009207;28;20180;-60
2021/12/27 06:03:57;;;;;;;13.27;9.35;;;;;;;7.49;67.07;94697.41;5009827;28;20460;-61
2021/12/27 06:06:23;;;;;;;14.55;10.07;;;;;;;7.44;67.44;94691.66;5009815;28;20065;-61
2021/12/27 06:08:48;;;;;;;17.60;12.20;;;;;;;7.30;67.50;94658.28;5009502;28;20045;-61
2021/12/27 06:11:14;;;;;;;17.17;12.05;;;;;;;7.48;67.32;94692.34;5009529;28;20032;-62
2021/12/27 06:13:39;;;;;;;16.75;11.82;;;;;;;7.57;67.15;94691.81;5009094;28;20478;-61
2021/12/27 06:16:05;;;;;;;16.65;12.40;;;;;;;7.63;66.85;94698.34;5009368;28;20018;-61
2021/12/27 06:18:30;;;;;;;12.60;8.45;;;;;;;7.54;67.13;94692.81;5009181;28;20119;-62
2021/12/27 06:20:56;;;;;;;16.33;11.32;;;;;;;7.54;67.24;94685.13;5009624;28;20033;-60
2021/12/27 06:23:21;;;;;;;15.95;11.27;;;;;;;7.59;67.42;94689.16;5008927;28;20030;-64
2021/12/27 06:25:47;;;;;;;14.23;10.50;;;;;;;7.63;67.14;94688.09;5009270;28;20025;-60
2021/12/27 06:28:12;;;;;;;13.63;10.77;;;;;;;7.64;67.06;94690.56;5009531;28;20038;-60
2021/12/27 06:30:38;;;;;;;15.10;10.57;;;;;;;7.52;66.94;94670.72;5009176;28;20045;-63
2021/12/27 06:33:06;;;;;;;16.40;11.45;;;;;;;7.76;66.54;94688.22;5008605;28;20034;-63
2021/12/27 06:35:32;;;;;;;11.15;8.48;;;;;;;7.61;66.51;94651.41;4998775;28;20521;-60
2021/12/27 06:37:58;;;;;;;15.35;10.15;;;;;;;7.73;67.01;94678.94;5009318;28;20065;-63
2021/12/27 06:40:23;;;;;;;14.38;10.73;;;;;;;7.67;66.88;94684.41;5007459;28;20499;-64
2021/12/27 06:42:49;;;;;;;12.43;9.00;;;;;;;7.66;66.41;94657.94;5008803;28;20041;-63
2021/12/27 06:45:15;;;;;;;14.70;9.98;;;;;;;7.70;67.10;94669.66;5009158;28;20121;-60
2021/12/27 06:47:41;;;;;;;16.95;11.55;;;;;;;7.75;66.92;94668.59;5008253;28;20108;-63
2021/12/27 06:50:08;;;;;;;13.57;9.52;;;;;;;7.79;66.89;94677.75;5008659;28;20149;-66
2021/12/27 06:52:34;;;;;;;15.30;9.80;;;;;;;7.83;66.18;94659.53;5008228;28;20096;-65
2021/12/27 06:54:59;;;;;;;14.52;9.82;;;;;;;7.85;65.93;94642.28;5008141;28;20049;-63
2021/12/27 06:57:25;;;;;;;16.20;9.00;;;;;;;7.91;65.78;94639.38;5004041;28;20159;-61
2021/12/27 06:59:50;;;;;;;12.85;8.20;;;;;;;8.26;65.52;94669.88;5007926;28;20034;-64
2021/12/27 07:02:17;;;;;;;14.43;9.40;;;;;;;8.53;64.94;94650.34;5005424;28;20069;-62
2021/12/27 07:04:42;;;;;;;13.38;8.30;;;;;;;8.20;64.77;94626.56;5006619;28;20067;-62
2021/12/27 07:07:08;;;;;;;12.73;8.93;;;;;;;8.32;65.17;94663.53;5005428;28;20050;-60
2021/12/27 07:09:33;;;;;;;10.45;7.75;;;;;;;8.30;65.48;94660.22;5005516;28;20034;-61
2021/12/27 07:11:59;;;;;;;13.85;8.30;;;;;;;8.37;64.76;94665.81;5004511;28;20348;-63
2021/12/27 07:14:25;;;;;;;12.95;8.43;;;;;;;8.45;64.93;94658.50;5005158;28;20120;-63
2021/12/27 07:16:50;;;;;;;12.18;8.35;;;;;;;8.40;64.34;94653.63;5004415;28;21083;-62
2021/12/27 07:19:16;;;;;;;13.82;7.93;;;;;;;8.57;63.93;94656.94;5004261;28;20030;-61
2021/12/27 07:21:41;;;;;;;11.43;7.78;;;;;;;8.78;63.30;94652.22;5003990;28;20049;-62
2021/12/27 07:24:07;;;;;;;10.48;7.28;;;;;;;8.91;62.76;94665.97;5004125;28;20522;-64
2021/12/27 07:26:33;;;;;;;11.10;6.95;;;;;;;8.94;62.20;94644.41;5004171;28;20022;-61
2021/12/27 07:28:58;;;;;;;12.65;8.27;;;;;;;8.97;62.26;94657.06;4986483;28;20037;-60
2021/12/27 07:31:24;;;;;;;12.13;10.13;;;;;;;8.94;62.92;94652.13;5005135;28;20540;-58
2021/12/27 07:33:49;;;;;;;15.05;10.43;;;;;;;9.12;62.30;94656.09;5004624;28;20034;-66
2021/12/27 07:36:15;;;;;;;19.45;11.70;;;;;;;8.99;62.63;94657.78;5003227;28;20081;-63
2021/12/27 07:38:42;;;;;;;15.27;10.68;;;;;;;8.94;62.58;94637.50;5005339;28;20037;-61
2021/12/27 07:41:08;;;;;;;17.20;12.63;;;;;;;8.73;63.79;94667.94;5005084;28;20524;-61
2021/12/27 07:43:34;;;;;;;17.48;11.23;;;;;;;8.45;63.98;94641.34;5005400;28;20084;-62
2021/12/27 07:45:59;;;;;;;16.95;11.15;;;;;;;8.47;63.82;94633.53;5005189;28;20034;-58
2021/12/27 07:48:25;;;;;;;13.73;10.00;;;;;;;8.72;64.07;94665.47;5004683;28;21076;-73
2021/12/27 07:50:52;;;;;;;14.52;10.60;;;;;;;8.63;63.42;94633.44;5004429;28;20033;-70
2021/12/27 07:53:17;;;;;;;15.32;10.70;;;;;;;8.69;63.78;94645.91;5008031;28;20057;-71
2021/12/27 07:55:43;;;;;;;15.68;10.57;;;;;;;8.91;63.27;94647.97;5007688;28;20033;-59
2021/12/27 07:58:09;;;;;;;14.40;10.15;;;;;;;9.08;62.36;94662.34;5007075;28;20049;-59
2021/12/27 08:00:35;;;;;;;15.02;10.73;;;;;;;8.97;62.96;94657.06;5007406;28;20509;-59
2021/12/27 08:03:01;;;;;;;14.27;9.77;;;;;;;8.88;62.81;94637.88;5006946;28;20178;-59
2021/12/27 08:05:26;;;;;;;16.65;11.40;;;;;;;9.07;62.81;94653.00;5007518;28;20030;-61
2021/12/27 08:07:52;;;;;;;13.65;10.07;;;;;;;9.10;62.94;94628.81;5007206;28;20026;-52
2021/12/27 08:10:18;;;;;;;16.10;10.70;;;;;;;9.27;61.96;94638.03;5006092;28;20034;-50
2021/12/27 08:12:44;;;;;;;16.63;11.68;;;;;;;9.24;62.23;94639.06;5007143;28;20088;-51
2021/12/27 08:15:11;;;;;;;13.90;10.23;;;;;;;9.24;62.88;94672.50;5006335;28;20030;-54
2021/12/27 08:17:37;;;;;;;16.52;11.00;;;;;;;9.53;61.22;94672.41;4999628;28;20552;-51
2021/12/27 08:20:04;;;;;;;14.25;10.82;;;;;;;9.54;61.58;94645.72;5004858;28;20061;-54
2021/12/27 08:22:30;;;;;;;15.70;10.93;;;;;;;9.69;60.84;94608.69;5005374;28;20037;-55
2021/12/27 08:24:55;;;;;;;17.05;12.32;;;;;;;9.59;60.43;94614.53;5005610;28;20026;-53
2021/12/27 08:27:23;;;;;;;16.70;11.65;;;;;;;9.76;60.52;94629.72;5004663;28;20045;-51
2021/12/27 08:29:48;;;;;;;18.00;11.85;;;;;;;9.39;61.84;94596.06;5005828;28;20029;-51
2021/12/27 08:32:14;;;;;;;17.63;12.77;;;;;;;9.53;61.44;94628.66;5006282;28;20036;-53
2021/12/27 08:34:40;;;;;;;19.35;13.02;;;;;;;9.19;63.29;94625.66;5007028;28;20036;-53
2021/12/27 08:37:06;;;;;;;15.32;11.00;;;;;;;9.34;62.97;94660.69;5006540;28;20022;-55
2021/12/27 08:39:32;;;;;;;16.15;10.38;;;;;;;9.10;61.81;94572.22;5007942;28;20069;-59
2021/12/27 08:41:57;;;;;;;13.75;9.90;;;;;;;9.44;62.12;94612.03;5006903;28;20026;-60
2021/12/27 08:44:23;;;;;;;14.70;11.38;;;;;;;9.59;60.91;94587.03;5006907;28;20029;-59
2021/12/27 08:46:49;;;;;;;14.07;11.15;;;;;;;9.64;62.00;94636.50;5006483;28;20097;-57
2021/12/27 08:49:14;;;;;;;13.02;7.15;;;;;;;9.70;61.20;94640.41;5006084;28;20029;-56
2021/12/27 08:51:40;;;;;;;14.73;9.98;;;;;;;9.60;61.26;94580.16;5006600;28;20404;-57
2021/12/27 08:54:06;;;;;;;17.75;11.55;;;;;;;9.99;60.79;94620.44;5006476;28;20485;-59
2021/12/27 08:56:32;;;;;;;23.15;14.52;;;;;;;9.72;60.41;94562.16;5007246;28;20670;-59
2021/12/27 08:58:59;;;;;;;17.25;11.88;;;;;;;9.69;61.04;94577.81;5006508;28;20044;-59
2021/12/27 09:01:26;;;;;;;17.85;11.20;;;;;;;9.94;60.74;94625.91;5007021;28;20482;-62
2021/12/27 09:03:51;;;;;;;17.30;11.68;;;;;;;10.05;59.75;94552.22;5005871;28;20022;-60
2021/12/27 09:06:17;;;;;;;17.63;12.18;;;;;;;10.61;58.49;94595.69;5007257;28;20026;-58
2021/12/27 09:08:42;;;;;;;21.92;14.52;;;;;;;10.57;58.73;94582.16;5006774;28;20481;-59
2021/12/27 09:11:08;;;;;;;18.02;11.13;;;;;;;10.82;57.69;94583.84;5006763;28;20448;-60
2021/12/27 09:13:36;;;;;;;18.63;11.93;;;;;;;10.99;56.79;94582.66;5006734;28;20100;-58
2021/12/27 09:16:03;;;;;;;13.80;10.18;;;;;;;10.84;57.74;94579.41;5006840;28;20022;-57
2021/12/27 09:18:33;;;;;;;16.58;10.15;;;;;;;10.59;58.48;94551.13;5006177;28;20057;-57
2021/12/27 09:21:00;;;;;;;23.30;14.60;;;;;;;10.33;58.27;94537.47;5006377;28;20034;-57
2021/12/27 09:23:25;;;;;;;18.15;12.25;;;;;;;10.50;60.24;94523.44;5005798;28;20509;-57
2021/12/27 09:25:51;;;;;;;19.90;13.60;;;;;;;10.67;58.46;94566.88;5005976;28;20034;-56
2021/12/27 09:28:17;;;;;;;17.27;12.02;;;;;;;10.90;57.38;94569.56;5006439;28;20053;-58
2021/12/27 09:30:42;;;;;;;21.40;12.15;;;;;;;10.99;58.58;94533.63;5005993;28;20038;-55
2021/12/27 09:33:08;;;;;;;10.63;6.40;;;;;;;10.62;58.81;94562.03;5005917;28;20125;-60
2021/12/27 09:35:35;;;;;;;16.35;11.88;;;;;;;10.81;58.25;94529.81;5005385;28;20036;-58
2021/12/27 09:38:00;;;;;;;22.15;14.27;;;;;;;10.94;58.02;94517.66;5005990;28;20120;-57
2021/12/27 09:40:26;;;;;;;22.75;15.30;;;;;;;11.21;57.01;94539.81;5006035;28;20172;-58
2021/12/27 09:42:53;;;;;;;22.02;15.30;;;;;;;11.29;56.77;94539.25;5006545;28;20041;-59
2021/12/27 09:45:21;;;;;;;19.40;12.75;;;;;;;11.49;55.85;94532.59;5005835;28;20448;-59
2021/12/27 09:47:49;;;;;;;18.30;12.50;;;;;;;11.54;55.37;94487.44;5007745;28;20452;-61
2021/12/27 09:50:19;;;;;;;18.58;11.15;;;;;;;12.01;54.62;94530.47;5005585;28;20030;-59
2021/12/27 09:52:45;;;;;;;15.63;10.85;;;;;;;12.00;54.24;94513.31;5005836;28;20046;-61
2021/12/27 09:55:11;;;;;;;15.25;9.75;;;;;;;12.13;54.29;94512.28;5005888;28;20118;-62
2021/12/27 09:57:38;;;;;;;15.48;10.45;;;;;;;11.58;55.01;94483.69;4991790;28;20066;-59
2021/12/27 10:00:07;;;;;;;18.02;10.85;;;;;;;11.70;54.76;94450.13;4988173;28;20408;-64
2021/12/27 10:02:37;;;;;;;19.63;12.02;;;;;;;11.85;54.76;94518.69;4992512;28;20026;-62
2021/12/27 10:05:04;;;;;;;15.75;10.57;;;;;;;11.39;55.76;94494.56;4990977;28;20382;-63
2021/12/27 10:07:30;;;;;;;17.70;11.57;;;;;;;11.69;55.20;94534.53;4992748;28;20026;-60
2021/12/27 10:09:59;;;;;;;16.38;11.80;;;;;;;11.43;55.55;94499.50;4992207;28;20045;-61
2021/12/27 10:12:28;;;;;;;16.60;10.70;;;;;;;11.16;56.58;94483.34;4989023;28;20397;-60
2021/12/27 10:15:03;;;;;;;15.75;9.77;;;;;;;11.33;56.62;94528.59;4989202;28;20041;-60
2021/12/27 10:17:34;;;;;;;16.50;11.30;;;;;;;11.30;56.66;94528.81;4989102;28;20088;-59
2021/12/27 10:20:12;;;;;;;18.80;11.40;;;;;;;11.27;56.92;94502.41;4989590;28;20069;-60
2021/12/27 10:22:43;;;;;;;16.25;11.38;;;;;;;11.28;56.96;94498.88;4989735;28;20043;-64
2021/12/27 10:25:26;;;;;;;18.25;12.85;;;;;;;11.27;56.91;94517.91;4988697;28;20018;-59
2021/12/27 10:27:54;;;;;;;17.55;12.27;;;;;;;11.30;57.26;94525.41;4989038;28;20059;-61
2021/12/27 10:30:22;;;;;;;17.60;12.38;;;;;;;11.46;56.65;94533.69;4989193;28;20026;-62
2021/12/27 10:33:14;;;;;;;16.77;11.65;;;;;;;11.13;57.64;94493.91;4989032;28;20457;-62
2021/12/27 10:35:45;;;;;;;16.67;11.43;;;;;;;11.10;57.42;94491.56;4988723;28;20116;-62
2021/12/27 10:38:16;;;;;;;18.83;12.18;;;;;;;11.46;57.05;94497.53;4988854;28;20030;-59
2021/12/27 10:40:52;;;;;;;17.20;12.02;;;;;;;11.51;56.67;94481.66;4988857;28;20529;-60
2021/12/27 10:43:31;;;;;;;19.58;12.52;;;;;;;11.49;56.02;94442.25;4988939;28;20160;-58
2021/12/27 10:46:00;;;;;;;21.05;11.68;;;;;;;11.74;55.96;94488.50;4989084;28;20026;-59
2021/12/27 10:48:32;;;;;;;21.30;12.95;;;;;;;11.86;55.90;94512.59;4988895;28;20027;-58
2021/12/27 10:50:58;;;;;;;26.38;14.05;;;;;;;11.79;55.68;94472.66;4988964;28;20394;-60
2021/12/27 10:53:24;;;;;;;23.33;13.38;;;;;;;11.92;55.51;94444.13;4988526;28;20136;-60
2021/12/27 10:55:50;;;;;;;22.35;11.10;;;;;;;12.47;53.94;94473.44;4988753;28;20022;-61
2021/12/27 10:58:24;;;;;;;19.10;10.63;;;;;;;12.74;52.62;94481.69;4988698;28;20049;-61
2021/12/27 11:01:00;;;;;;;28.75;19.95;;;;;;;12.38;53.95;94450.06;4988597;28;20041;-60
2021/12/27 11:03:33;;;;;;;18.85;14.10;;;;;;;13.65;50.94;94462.19;4988934;28;20081;-60
2021/12/27 11:06:02;;;;;;;21.17;15.27;;;;;;;13.60;50.79;94485.88;4988433;28;20136;-59
2021/12/27 11:08:28;;;;;;;25.52;15.73;;;;;;;13.50;50.41;94486.78;4988693;28;20406;-62
2021/12/27 11:10:54;;;;;;;27.33;16.73;;;;;;;13.05;52.00;94448.97;4988469;28;20037;-58
2021/12/27 11:13:20;;;;;;;24.15;15.68;;;;;;;12.98;52.16;94453.03;4988021;28;20030;-60
2021/12/27 11:15:45;;;;;;;22.40;15.43;;;;;;;12.90;52.05;94456.22;4988784;28;20081;-58
2021/12/27 11:18:13;;;;;;;27.40;16.83;;;;;;;12.70;52.40;94439.75;4988429;28;20097;-59
2021/12/27 11:20:43;;;;;;;31.88;16.85;;;;;;;12.73;52.78;94461.97;4988237;28;20149;-60
2021/12/27 11:23:10;;;;;;;22.48;14.52;;;;;;;12.63;52.86;94459.28;4988186;28;20037;-64
2021/12/27 11:25:39;;;;;;;28.90;16.35;;;;;;;12.35;53.98;94445.13;4988166;28;20030;-62
2021/12/27 11:28:23;;;;;;;23.90;14.95;;;;;;;12.12;54.76;94445.19;4991282;28;20023;-62